createdAt,value
2022-09-17T00:01:49.080Z,6.10
2022-09-17T00:04:31.519Z,9.50
2022-09-17T00:07:13.312Z,9.80
2022-09-17T00:09:55.106Z,9.50
2022-09-17T00:12:36.899Z,5.60
2022-09-17T00:15:18.794Z,8.00
2022-09-17T00:18:00.634Z,6.30
2022-09-17T00:20:45.455Z,9.60
2022-09-17T00:23:27.349Z,8.80
2022-09-17T00:26:09.142Z,7.60
2022-09-17T00:28:55.748Z,8.00
2022-09-17T00:31:37.708Z,8.50
2022-09-17T00:34:19.642Z,6.90
2022-09-17T00:37:01.434Z,7.80
2022-09-17T00:39:43.228Z,7.20
2022-09-17T00:42:25.124Z,5.90
2022-09-17T00:45:07.941Z,7.10
2022-09-17T00:47:59.258Z,7.00
2022-09-17T00:50:43.753Z,10.60
2022-09-17T00:53:25.816Z,6.80
2022-09-17T00:56:19.489Z,8.20
2022-09-17T00:59:03.715Z,6.80
2022-09-17T01:01:46.615Z,9.70
2022-09-17T01:04:28.553Z,7.10
2022-09-17T01:07:30.621Z,7.10
2022-09-17T01:10:36.376Z,6.20
2022-09-17T01:13:33.426Z,7.80
2022-09-17T01:16:42.561Z,10.20
2022-09-17T01:19:36.337Z,5.70
2022-09-17T01:22:27.037Z,8.40
2022-09-17T01:25:28.599Z,6.60
2022-09-17T01:28:33.737Z,7.90
2022-09-17T01:31:36.253Z,9.10
2022-09-17T01:34:32.035Z,7.60
2022-09-17T01:37:30.823Z,9.30
2022-09-17T01:40:24.677Z,11.20
2022-09-17T01:43:25.443Z,11.50
2022-09-17T01:46:18.332Z,6.90
2022-09-17T01:49:05.412Z,11.20
2022-09-17T01:51:49.765Z,8.00
2022-09-17T01:54:42.362Z,8.60
2022-09-17T01:57:40.897Z,8.80
2022-09-17T02:00:23.927Z,6.80
2022-09-17T02:03:17.365Z,9.70
2022-09-17T02:06:06.033Z,7.20
2022-09-17T02:09:04.730Z,10.30
2022-09-17T02:11:52.342Z,8.10
2022-09-17T02:14:40.389Z,11.50
2022-09-17T02:17:32.093Z,7.20
2022-09-17T02:20:17.662Z,9.80
2022-09-17T02:23:08.772Z,6.80
2022-09-17T02:25:57.475Z,9.70
2022-09-17T02:28:51.555Z,8.20
2022-09-17T02:31:33.590Z,9.40
2022-09-17T02:34:15.837Z,12.50
2022-09-17T02:37:01.207Z,10.50
2022-09-17T02:39:43.562Z,10.40
2022-09-17T02:43:04.041Z,10.10
2022-09-17T02:46:41.266Z,7.40
2022-09-17T02:50:01.734Z,7.30
2022-09-17T02:53:08.309Z,9.30
2022-09-17T02:56:13.853Z,7.90
2022-09-17T02:59:04.663Z,7.90
2022-09-17T03:02:01.463Z,8.00
2022-09-17T03:04:47.055Z,8.00
2022-09-17T03:07:29.402Z,8.70
2022-09-17T03:10:11.395Z,11.00
2022-09-17T03:12:54.007Z,8.60
2022-09-17T03:15:35.903Z,8.90
2022-09-17T03:18:17.697Z,9.10
2022-09-17T03:20:59.797Z,9.90
2022-09-17T03:23:41.795Z,11.50
2022-09-17T03:26:23.592Z,11.90
2022-09-17T03:29:05.793Z,8.60
2022-09-17T03:31:48.813Z,7.60
2022-09-17T03:34:30.607Z,7.70
2022-09-17T03:37:12.605Z,9.50
2022-09-17T03:39:54.467Z,6.30
2022-09-17T03:42:36.294Z,9.20
2022-09-17T03:45:18.498Z,8.90
2022-09-17T03:48:00.597Z,7.20
2022-09-17T03:50:43.619Z,7.60
2022-09-17T03:53:25.413Z,8.10
2022-09-17T03:56:07.617Z,7.80
2022-09-17T03:58:49.409Z,9.60
2022-09-17T04:01:31.257Z,7.50
2022-09-17T04:04:13.074Z,6.60
2022-09-17T04:06:55.168Z,7.20
2022-09-17T04:09:36.991Z,7.80
2022-09-17T04:12:20.526Z,8.50
2022-09-17T04:15:02.833Z,6.60
2022-09-17T04:17:44.932Z,9.30
2022-09-17T04:20:26.929Z,7.80
2022-09-17T04:23:11.080Z,8.80
2022-09-17T04:25:52.973Z,9.40
2022-09-17T04:28:34.767Z,8.10
2022-09-17T04:31:16.613Z,8.10
2022-09-17T04:33:58.792Z,10.40
2022-09-17T04:36:42.093Z,7.80
2022-09-17T04:39:23.886Z,8.30
2022-09-17T04:42:05.679Z,9.70
2022-09-17T04:44:47.655Z,8.20
2022-09-17T04:47:29.470Z,10.10
2022-09-17T04:50:11.366Z,6.90
2022-09-17T04:52:53.158Z,7.30
2022-09-17T04:55:35.363Z,8.90
2022-09-17T04:58:17.361Z,8.60
2022-09-17T05:00:59.527Z,6.70
2022-09-17T05:03:41.459Z,6.40
2022-09-17T05:06:23.252Z,8.80
2022-09-17T05:09:05.051Z,8.40
2022-09-17T05:11:46.941Z,10.10
2022-09-17T05:14:28.734Z,9.50
2022-09-17T05:17:11.040Z,12.70
2022-09-17T05:19:53.651Z,11.00
2022-09-17T05:22:35.958Z,68.20
2022-09-17T05:25:19.972Z,55.30
2022-09-17T05:28:03.231Z,17.00
2022-09-17T05:30:45.125Z,14.70
2022-09-17T05:33:26.920Z,20.40
2022-09-17T05:36:08.735Z,16.70
2022-09-17T05:38:50.608Z,14.00
2022-09-17T05:41:32.402Z,14.50
2022-09-17T05:44:17.977Z,10.80
2022-09-17T05:47:00.345Z,9.20
2022-09-17T05:49:42.389Z,6.50
2022-09-17T05:52:28.386Z,7.50
2022-09-17T05:55:10.276Z,7.60
2022-09-17T05:57:52.072Z,9.20
2022-09-17T06:00:33.862Z,7.00
2022-09-17T06:03:18.210Z,9.70
2022-09-17T06:06:00.933Z,9.50
2022-09-17T06:08:43.034Z,10.20
2022-09-17T06:11:24.828Z,8.40
2022-09-17T06:14:06.619Z,8.10
2022-09-17T06:16:48.554Z,10.00
2022-09-17T06:19:30.957Z,7.60
2022-09-17T06:22:12.920Z,8.50
2022-09-17T06:24:54.713Z,9.50
2022-09-17T06:27:36.813Z,8.20
2022-09-17T06:30:19.221Z,8.90
2022-09-17T06:33:01.530Z,7.10
2022-09-17T06:35:43.729Z,8.80
2022-09-17T06:38:25.625Z,8.80
2022-09-17T06:41:07.522Z,8.40
2022-09-17T06:43:53.513Z,11.20
2022-09-17T06:46:35.352Z,10.00
2022-09-17T06:49:18.226Z,11.70
2022-09-17T06:52:00.020Z,11.30
2022-09-17T06:54:41.815Z,9.40
2022-09-17T06:57:23.708Z,11.00
2022-09-17T07:00:06.083Z,9.10
2022-09-17T07:03:01.426Z,8.60
2022-09-17T07:05:45.266Z,9.90
2022-09-17T07:08:27.265Z,11.60
2022-09-17T07:11:09.165Z,9.40
2022-09-17T07:13:51.129Z,13.60
2022-09-17T07:16:35.277Z,14.00
2022-09-17T07:19:17.408Z,12.00
2022-09-17T07:21:59.508Z,9.90
2022-09-17T07:24:41.711Z,11.00
2022-09-17T07:27:24.133Z,13.10
2022-09-17T07:30:07.961Z,11.50
2022-09-17T07:32:50.474Z,12.60
2022-09-17T07:35:32.532Z,16.00
2022-09-17T07:41:42.548Z,14.80
2022-09-17T07:44:25.670Z,14.00
2022-09-17T07:47:07.771Z,11.10
2022-09-17T07:49:49.987Z,16.00
2022-09-17T07:52:31.868Z,15.80
2022-09-17T07:55:14.278Z,11.40
2022-09-17T07:57:56.069Z,13.10
2022-09-17T08:00:37.863Z,16.40
2022-09-17T08:03:19.655Z,13.90
2022-09-17T08:06:06.056Z,15.20
2022-09-17T08:08:48.591Z,14.20
2022-09-17T08:11:54.660Z,13.30
2022-09-17T08:14:33.657Z,13.80
2022-09-17T08:17:16.073Z,16.50
2022-09-17T08:19:57.860Z,17.10
2022-09-17T08:22:40.165Z,14.30
2022-09-17T08:25:21.957Z,16.20
2022-09-17T08:28:03.751Z,15.40
2022-09-17T08:30:46.663Z,15.70
2022-09-17T08:33:32.362Z,24.30
2022-09-17T08:36:16.709Z,17.70
2022-09-17T08:38:58.911Z,27.80
2022-09-17T08:41:43.701Z,35.80
2022-09-17T08:44:30.870Z,28.90
2022-09-17T08:47:25.639Z,23.90
2022-09-17T08:50:15.576Z,19.00
2022-09-17T08:53:19.179Z,19.30
2022-09-17T08:56:13.569Z,15.90
2022-09-17T08:59:21.891Z,16.50
2022-09-17T09:02:15.012Z,16.60
2022-09-17T09:05:02.738Z,19.60
2022-09-17T09:07:50.480Z,17.60
2022-09-17T09:10:51.351Z,13.20
2022-09-17T09:13:42.269Z,16.20
2022-09-17T09:16:27.786Z,12.70
2022-09-17T09:19:27.243Z,11.40
2022-09-17T09:22:35.662Z,9.90
2022-09-17T09:25:37.218Z,10.80
2022-09-17T09:28:39.656Z,9.20
2022-09-17T09:31:48.089Z,8.60
2022-09-17T09:34:34.043Z,10.40
2022-09-17T09:37:33.511Z,10.60
2022-09-17T09:57:10.712Z,7.30
2022-09-17T10:00:23.737Z,7.10
2022-09-17T10:03:22.631Z,3.90
2022-09-17T10:06:07.745Z,6.70
2022-09-17T10:08:52.185Z,5.10
2022-09-17T10:11:33.982Z,7.20
2022-09-17T10:14:28.219Z,4.80
2022-09-17T10:17:26.935Z,8.00
2022-09-17T10:20:20.577Z,5.40
2022-09-17T10:23:06.692Z,5.80
2022-09-17T10:25:50.330Z,4.60
2022-09-17T10:28:39.699Z,5.80
2022-09-17T10:31:24.488Z,5.00
2022-09-17T10:34:27.612Z,4.50
2022-09-17T10:37:52.472Z,6.00
2022-09-17T10:40:38.013Z,8.60
2022-09-17T10:43:27.399Z,6.40
2022-09-17T10:46:15.475Z,10.30
2022-09-17T10:49:28.690Z,13.40
2022-09-17T10:52:38.262Z,7.20
2022-09-17T10:55:52.498Z,5.30
2022-09-17T10:58:51.312Z,7.60
2022-09-17T11:02:00.179Z,6.80
2022-09-17T11:05:01.059Z,7.00
2022-09-17T11:07:59.526Z,6.80
2022-09-17T11:11:09.827Z,6.50
2022-09-17T11:17:08.247Z,4.10
2022-09-17T11:20:06.845Z,4.50
2022-09-17T11:23:17.629Z,6.90
2022-09-17T11:26:28.752Z,6.90
2022-09-17T11:29:41.143Z,7.30
2022-09-17T11:32:48.986Z,3.90
2022-09-17T11:35:45.178Z,4.50
2022-09-17T11:38:47.863Z,5.40
2022-09-17T11:41:42.004Z,6.00
2022-09-17T11:44:50.364Z,7.30
2022-09-17T11:47:40.198Z,5.30
2022-09-17T11:50:44.666Z,5.70
2022-09-17T11:53:36.505Z,7.20
2022-09-17T11:56:25.789Z,7.60
2022-09-17T11:59:21.129Z,4.60
2022-09-17T12:02:09.524Z,4.70
2022-09-17T12:05:03.659Z,21.00
2022-09-17T12:07:57.995Z,15.00
2022-09-17T12:11:03.134Z,21.40
2022-09-17T12:13:52.946Z,8.50
2022-09-17T12:16:43.865Z,22.40
2022-09-17T12:19:44.149Z,10.90
2022-09-17T12:22:39.547Z,13.10
2022-09-17T12:25:22.663Z,9.50
2022-09-17T12:28:21.989Z,8.20
2022-09-17T12:31:43.552Z,8.50
2022-09-17T12:34:47.836Z,8.60
2022-09-17T12:38:08.646Z,7.70
2022-09-17T12:41:12.760Z,6.50
2022-09-17T12:44:17.595Z,5.30
2022-09-17T12:47:18.129Z,7.30
2022-09-17T12:53:08.624Z,6.90
2022-09-17T12:56:02.362Z,5.70
2022-09-17T12:59:03.262Z,4.60
2022-09-17T13:01:53.513Z,5.20
2022-09-17T13:05:00.097Z,6.60
2022-09-17T13:08:02.404Z,5.90
2022-09-17T13:16:14.313Z,9.60
2022-09-17T13:23:31.070Z,11.50
2022-09-17T13:26:52.719Z,9.70
2022-09-17T13:29:43.620Z,8.50
2022-09-17T13:32:37.687Z,13.70
2022-09-17T13:35:22.246Z,9.00
2022-09-17T13:38:04.143Z,15.60
2022-09-17T13:59:54.511Z,16.50
2022-09-17T14:02:37.014Z,11.90
2022-09-17T14:05:32.693Z,22.90
2022-09-17T14:08:28.729Z,7.00
2022-09-17T14:11:58.537Z,9.30
2022-09-17T14:19:41.696Z,6.20
2022-09-17T14:22:28.278Z,7.30
2022-09-17T14:25:19.323Z,5.60
2022-09-17T14:28:08.844Z,5.60
2022-09-17T14:30:51.399Z,7.30
2022-09-17T14:33:34.420Z,6.40
2022-09-17T14:36:20.406Z,6.40
2022-09-17T14:39:04.863Z,5.50
2022-09-17T14:41:47.274Z,7.50
2022-09-17T14:44:33.368Z,11.90
2022-09-17T14:47:19.895Z,7.10
2022-09-17T14:50:25.533Z,11.10
2022-09-17T14:53:21.493Z,9.20
